createdAt,value
2019-05-02T00:01:40.931Z,97508.50
2019-05-02T00:04:12.465Z,97508.50
2019-05-02T00:06:44.204Z,97510.45
2019-05-02T00:09:14.142Z,97509.24
2019-05-02T00:11:43.555Z,97497.88
2019-05-02T00:14:13.152Z,97497.88
2019-05-02T00:16:45.222Z,97498.24
2019-05-02T00:19:15.333Z,97498.41
2019-05-02T00:21:44.774Z,97498.41
2019-05-02T00:24:14.183Z,97496.66
2019-05-02T00:26:43.629Z,97490.66
2019-05-02T00:29:13.128Z,97476.63
2019-05-02T00:31:46.832Z,97488.13
2019-05-02T00:34:13.662Z,97485.77
2019-05-02T00:36:43.142Z,97485.77
2019-05-02T00:39:13.821Z,97481.95
2019-05-02T00:41:43.900Z,97481.95
2019-05-02T00:44:13.859Z,97474.98
2019-05-02T00:46:43.294Z,97464.53
2019-05-02T00:49:12.766Z,97467.95
2019-05-02T00:51:42.172Z,97470.40
2019-05-02T00:54:11.534Z,97470.40
2019-05-02T00:56:44.054Z,97464.84
2019-05-02T00:59:12.155Z,97464.69
2019-05-02T01:02:00.021Z,97452.77
2019-05-02T01:04:34.130Z,97452.77
2019-05-02T01:07:04.442Z,97458.54
2019-05-02T01:09:33.822Z,97457.56
2019-05-02T01:12:08.179Z,97450.34
2019-05-02T01:14:34.334Z,97449.98
2019-05-02T01:17:03.715Z,97449.98
2019-05-02T01:19:33.097Z,97447.20
2019-05-02T01:22:02.469Z,97447.20
2019-05-02T01:24:34.103Z,97433.34
2019-05-02T01:27:21.917Z,97433.34
2019-05-02T01:30:01.670Z,97435.95
2019-05-02T01:32:47.160Z,97445.00
2019-05-02T01:35:22.296Z,97444.17
2019-05-02T01:38:16.694Z,97444.17
2019-05-02T01:40:53.331Z,97447.20
2019-05-02T01:43:28.908Z,97436.83
2019-05-02T01:45:58.308Z,97436.83
2019-05-02T01:48:27.936Z,97437.50
2019-05-02T01:50:57.315Z,97425.63
2019-05-02T01:53:29.353Z,97425.33
2019-05-02T01:55:59.396Z,97425.33
2019-05-02T01:58:28.935Z,97409.59
2019-05-02T02:00:58.305Z,97419.55
2019-05-02T02:03:27.967Z,97419.22
2019-05-02T02:06:02.775Z,97417.38
2019-05-02T02:08:32.622Z,97411.23
2019-05-02T02:10:59.900Z,97407.76
2019-05-02T02:13:31.137Z,97391.18
2019-05-02T02:16:04.505Z,97396.00
2019-05-02T02:18:34.500Z,97396.00
2019-05-02T02:21:25.766Z,97405.36
2019-05-02T02:24:11.594Z,97407.38
2019-05-02T02:26:43.599Z,97407.38
2019-05-02T02:29:12.079Z,97408.81
2019-05-02T02:31:46.866Z,97408.81
2019-05-02T02:34:12.778Z,97409.95
2019-05-02T02:36:42.209Z,97406.42
2019-05-02T02:39:13.995Z,97407.19
2019-05-02T02:41:45.356Z,97392.58
2019-05-02T02:44:40.080Z,97392.58
2019-05-02T02:47:12.180Z,97403.08
2019-05-02T02:49:38.382Z,97397.16
2019-05-02T02:52:07.810Z,97397.70
2019-05-02T02:54:43.179Z,97393.75
2019-05-02T02:57:20.538Z,97390.00
2019-05-02T02:59:39.518Z,97400.75
2019-05-02T03:02:11.691Z,97399.38
2019-05-02T03:04:44.066Z,97392.34
2019-05-02T03:07:11.187Z,97386.48
2019-05-02T03:09:40.567Z,97386.48
2019-05-02T03:12:27.780Z,97392.95
2019-05-02T03:14:58.907Z,97388.56
2019-05-02T03:17:28.903Z,97385.09
2019-05-02T03:20:01.512Z,97380.87
2019-05-02T03:22:34.946Z,97380.87
2019-05-02T03:25:00.866Z,97383.79
2019-05-02T03:27:37.274Z,97380.12
2019-05-02T03:30:01.485Z,97382.30
2019-05-02T03:32:35.062Z,97378.47
2019-05-02T03:35:02.327Z,97373.41
2019-05-02T03:37:32.993Z,97377.38
2019-05-02T03:40:02.409Z,97378.97
2019-05-02T03:42:43.633Z,97378.72
2019-05-02T03:45:05.010Z,97373.10
2019-05-02T03:47:36.931Z,97373.41
2019-05-02T03:50:09.207Z,97368.16
2019-05-02T03:52:43.680Z,97368.46
2019-05-02T03:55:09.517Z,97368.46
2019-05-02T03:57:41.976Z,97371.16
2019-05-02T04:00:13.942Z,97367.19
2019-05-02T04:02:41.276Z,97369.58
2019-05-02T04:05:10.900Z,97371.77
2019-05-02T04:07:42.389Z,97375.44
2019-05-02T04:10:20.016Z,97375.72
2019-05-02T04:12:45.798Z,97373.53
2019-05-02T04:15:15.177Z,97376.89
2019-05-02T04:17:44.694Z,97376.89
2019-05-02T04:20:14.189Z,97372.98
2019-05-02T04:22:48.981Z,97378.80
2019-05-02T04:25:14.994Z,97380.73
2019-05-02T04:27:44.605Z,97384.27
2019-05-02T04:30:15.688Z,97392.39
2019-05-02T04:32:49.796Z,97386.16
2019-05-02T04:35:16.204Z,97383.84
2019-05-02T04:37:45.632Z,97391.65
2019-05-02T04:40:17.973Z,97386.05
2019-05-02T04:42:51.224Z,97386.58
2019-05-02T04:45:28.305Z,97389.52
2019-05-02T04:47:54.778Z,97376.64
2019-05-02T04:50:24.984Z,97376.64
2019-05-02T04:52:53.923Z,97389.28
2019-05-02T04:55:29.232Z,97387.52
2019-05-02T04:57:53.302Z,97388.38
2019-05-02T05:00:28.640Z,97385.02
2019-05-02T05:02:58.288Z,97388.63
2019-05-02T05:05:31.050Z,97387.56
2019-05-02T05:07:58.898Z,97387.95
2019-05-02T05:10:28.466Z,97384.70
2019-05-02T05:12:58.005Z,97383.55
2019-05-02T05:15:38.283Z,97383.95
2019-05-02T05:17:58.524Z,97380.42
2019-05-02T05:20:28.106Z,97397.66
2019-05-02T05:22:58.097Z,97385.86
2019-05-02T05:25:34.073Z,97398.76
2019-05-02T05:28:06.019Z,97398.76
2019-05-02T05:30:37.674Z,97397.57
2019-05-02T05:33:07.628Z,97399.19
2019-05-02T05:35:38.570Z,97399.19
2019-05-02T05:38:08.119Z,97388.10
2019-05-02T05:40:38.160Z,97386.70
2019-05-02T05:43:14.352Z,97386.70
2019-05-02T05:45:50.730Z,97391.73
2019-05-02T05:48:09.877Z,97391.22
2019-05-02T05:50:41.378Z,97389.33
2019-05-02T05:53:12.366Z,97384.88
2019-05-02T05:55:41.638Z,97384.88
2019-05-02T05:58:15.327Z,97392.95
2019-05-02T06:00:45.860Z,97391.52
2019-05-02T06:03:14.206Z,97391.52
2019-05-02T06:05:43.831Z,97392.63
2019-05-02T06:08:13.824Z,97394.84
2019-05-02T06:10:45.244Z,97389.69
2019-05-02T06:13:14.674Z,97388.16
2019-05-02T06:15:45.906Z,97383.89
2019-05-02T06:18:15.174Z,97390.54
2019-05-02T06:20:44.550Z,97382.80
2019-05-02T06:23:14.030Z,97384.41
2019-05-02T06:25:43.463Z,97377.78
2019-05-02T06:28:12.847Z,97384.23
2019-05-02T06:30:42.472Z,97380.39
2019-05-02T06:33:11.940Z,97385.10
2019-05-02T06:35:41.341Z,97387.97
2019-05-02T06:38:10.830Z,97390.67
2019-05-02T06:40:44.786Z,97381.85
2019-05-02T06:43:11.488Z,97392.42
2019-05-02T06:45:40.922Z,97387.94
2019-05-02T06:48:16.851Z,97384.04
2019-05-02T06:50:41.461Z,97376.94
2019-05-02T06:53:11.235Z,97370.33
2019-05-02T06:55:40.816Z,97372.97
2019-05-02T06:58:10.290Z,97374.80
2019-05-02T07:00:56.009Z,97371.03
2019-05-02T07:03:11.685Z,97375.32
2019-05-02T07:05:41.379Z,97372.06
2019-05-02T07:08:11.854Z,97362.49
2019-05-02T07:10:44.806Z,97365.57
2019-05-02T07:13:15.062Z,97363.36
2019-05-02T07:16:15.237Z,97364.77
2019-05-02T07:18:50.059Z,97359.16
2019-05-02T07:21:23.392Z,97363.36
2019-05-02T07:23:53.583Z,97358.22
2019-05-02T07:26:23.349Z,97364.41
2019-05-02T07:28:52.783Z,97356.98
2019-05-02T07:31:22.219Z,97357.95
2019-05-02T07:33:51.612Z,97355.09
2019-05-02T07:36:20.990Z,97357.47
2019-05-02T07:38:50.532Z,97363.74
2019-05-02T07:41:24.186Z,97354.38
2019-05-02T07:43:52.001Z,97355.39
2019-05-02T07:46:22.387Z,97348.80
2019-05-02T07:48:54.891Z,97352.73
2019-05-02T07:51:25.137Z,97357.97
2019-05-02T07:53:55.783Z,97357.43
2019-05-02T07:56:25.413Z,97356.08
2019-05-02T07:58:54.954Z,97353.00
2019-05-02T08:01:24.533Z,97356.50
2019-05-02T08:03:54.398Z,97359.12
2019-05-02T08:06:34.971Z,97353.59
2019-05-02T08:08:55.572Z,97360.04
2019-05-02T08:11:25.181Z,97357.17
2019-05-02T08:13:55.501Z,97355.69
2019-05-02T08:16:27.466Z,97358.53
2019-05-02T08:19:01.369Z,97354.33
2019-05-02T08:21:32.519Z,97356.27
2019-05-02T08:24:02.224Z,97354.08
2019-05-02T08:26:48.316Z,97356.58
2019-05-02T08:29:18.256Z,97349.56
2019-05-02T08:31:47.653Z,97351.58
2019-05-02T08:34:19.801Z,97346.56
2019-05-02T08:36:49.361Z,97346.97
2019-05-02T08:39:19.904Z,97351.06
2019-05-02T08:41:51.307Z,97355.62
2019-05-02T08:44:20.686Z,97343.39
2019-05-02T08:46:51.370Z,97348.75
2019-05-02T08:49:21.380Z,97341.65
2019-05-02T08:51:51.389Z,97334.94
2019-05-02T08:54:20.855Z,97327.95
2019-05-02T08:56:53.407Z,97328.30
2019-05-02T08:59:24.496Z,97323.28
2019-05-02T09:01:52.590Z,97318.16
2019-05-02T09:04:24.217Z,97318.55
2019-05-02T09:06:58.002Z,97323.49
2019-05-02T09:09:28.184Z,97313.39
2019-05-02T09:12:08.962Z,97318.87
2019-05-02T09:14:28.592Z,97321.22
2019-05-02T09:17:00.247Z,97310.71
2019-05-02T09:19:32.434Z,97303.67
2019-05-02T09:22:02.442Z,97303.54
2019-05-02T09:24:32.589Z,97301.77
2019-05-02T09:27:02.550Z,97293.86
2019-05-02T09:29:32.762Z,97292.88
2019-05-02T09:32:02.314Z,97291.60
2019-05-02T09:34:32.580Z,97290.92
2019-05-02T09:37:02.725Z,97290.26
2019-05-02T09:39:36.405Z,97293.28
2019-05-02T09:42:06.562Z,97285.66
2019-05-02T09:44:34.659Z,97285.42
2019-05-02T09:47:04.217Z,97288.26
2019-05-02T09:49:33.585Z,97284.81
2019-05-02T09:52:03.422Z,97290.59
2019-05-02T09:54:37.017Z,97274.84
2019-05-02T09:57:04.830Z,97286.23
2019-05-02T09:59:34.241Z,97277.31
2019-05-02T10:02:06.552Z,97280.03
2019-05-02T10:04:36.102Z,97266.84
2019-05-02T10:07:05.990Z,97273.95
2019-05-02T10:09:35.478Z,97270.60
2019-05-02T10:12:05.031Z,97267.23
2019-05-02T10:14:34.608Z,97259.44
2019-05-02T10:17:07.132Z,97258.39
2019-05-02T10:19:35.293Z,97258.60
2019-05-02T10:22:05.039Z,97250.47
2019-05-02T10:24:34.433Z,97251.04
2019-05-02T10:27:08.519Z,97259.55
2019-05-02T10:29:35.185Z,97246.61
2019-05-02T10:32:07.590Z,97251.94
2019-05-02T10:34:35.874Z,97250.63
2019-05-02T10:37:05.274Z,97250.33
2019-05-02T10:39:37.841Z,97241.31
2019-05-02T10:42:06.081Z,97239.53
2019-05-02T10:44:36.623Z,97233.69
2019-05-02T10:47:06.226Z,97228.02
2019-05-02T10:49:43.978Z,97224.67
2019-05-02T10:52:13.493Z,97228.02
2019-05-02T10:54:42.869Z,97219.30
2019-05-02T10:57:12.784Z,97221.98
2019-05-02T10:59:42.233Z,97219.82
2019-05-02T11:02:33.890Z,97216.91
2019-05-02T11:05:08.973Z,97230.06
2019-05-02T11:07:38.411Z,97213.52
2019-05-02T11:10:09.248Z,97220.19
2019-05-02T11:12:56.754Z,97223.53
2019-05-02T11:15:47.956Z,97223.33
2019-05-02T11:18:22.205Z,97208.03
2019-05-02T11:20:52.567Z,97206.63
2019-05-02T11:23:22.987Z,97208.97
2019-05-02T11:25:53.869Z,97211.22
2019-05-02T11:28:23.367Z,97201.95
2019-05-02T11:30:57.016Z,97192.81
2019-05-02T11:33:24.268Z,97192.59
2019-05-02T11:35:53.904Z,97193.10
2019-05-02T11:38:44.382Z,97198.44
2019-05-02T11:40:54.433Z,97200.04
2019-05-02T11:43:23.883Z,97190.01
2019-05-02T11:45:54.411Z,97195.13
2019-05-02T11:48:25.316Z,97199.88
2019-05-02T11:50:54.687Z,97180.30
2019-05-02T11:53:28.865Z,97176.65
2019-05-02T11:55:58.429Z,97175.91
2019-05-02T11:58:26.568Z,97174.89
2019-05-02T12:00:56.041Z,97161.13
2019-05-02T12:03:42.701Z,97172.25
2019-05-02T12:06:19.138Z,97168.83
2019-05-02T12:08:45.055Z,97172.69
2019-05-02T12:11:17.687Z,97176.46
2019-05-02T12:13:47.403Z,97165.05
2019-05-02T12:16:17.692Z,97163.50
2019-05-02T12:18:47.144Z,97163.11
2019-05-02T12:21:16.706Z,97167.86
2019-05-02T12:23:46.086Z,97162.56
2019-05-02T12:26:15.571Z,97171.84
2019-05-02T12:28:45.156Z,97168.70
2019-05-02T12:31:29.473Z,97158.73
2019-05-02T12:34:02.516Z,97149.81
2019-05-02T12:36:33.383Z,97142.59
2019-05-02T12:39:03.020Z,97150.86
2019-05-02T12:41:33.215Z,97159.31
2019-05-02T12:44:02.966Z,97159.30
2019-05-02T12:46:32.702Z,97160.05
2019-05-02T12:49:03.002Z,97156.38
2019-05-02T12:51:32.603Z,97156.33
2019-05-02T12:54:02.533Z,97155.57
2019-05-02T12:56:32.547Z,97141.98
2019-05-02T12:59:02.653Z,97141.36
2019-05-02T13:01:33.121Z,97131.63
2019-05-02T13:04:13.263Z,97131.03
2019-05-02T13:06:43.041Z,97140.13
2019-05-02T13:09:13.154Z,97131.72
2019-05-02T13:12:07.896Z,97137.40
2019-05-02T13:14:38.346Z,97132.50
2019-05-02T13:17:08.259Z,97133.84
2019-05-02T13:19:41.639Z,97125.91
2019-05-02T13:22:28.475Z,97127.05
2019-05-02T13:25:10.204Z,97118.11
2019-05-02T13:27:44.335Z,97130.50
2019-05-02T13:30:17.667Z,97126.69
2019-05-02T13:32:53.769Z,97128.39
2019-05-02T13:35:42.084Z,97127.80
2019-05-02T13:38:12.996Z,97110.63
2019-05-02T13:41:23.992Z,97108.03
2019-05-02T13:43:54.156Z,97109.45
2019-05-02T13:46:26.708Z,97104.73
2019-05-02T13:48:55.200Z,97101.25
2019-05-02T13:51:24.603Z,97099.04
2019-05-02T13:53:59.088Z,97098.51
2019-05-02T13:56:49.062Z,97096.76
2019-05-02T13:59:19.585Z,97104.50
2019-05-02T14:01:52.085Z,97092.72
2019-05-02T14:04:23.287Z,97088.00
2019-05-02T14:06:53.650Z,97090.30
2019-05-02T14:09:29.012Z,97086.66
2019-05-02T14:12:26.841Z,97085.00
2019-05-02T14:14:56.489Z,97076.41
2019-05-02T14:17:26.296Z,97070.02
2019-05-02T14:20:07.775Z,97080.70
2019-05-02T14:22:28.967Z,97073.56
2019-05-02T14:24:58.371Z,97070.17
2019-05-02T14:27:27.761Z,97070.38
2019-05-02T14:29:57.250Z,97062.39
2019-05-02T14:32:27.148Z,97068.09
2019-05-02T14:35:18.566Z,97056.45
2019-05-02T14:37:50.670Z,97054.10
2019-05-02T14:40:27.144Z,97048.19
2019-05-02T14:42:57.807Z,97042.83
2019-05-02T14:45:31.332Z,97041.88
2019-05-02T14:48:17.517Z,97049.95
2019-05-02T14:50:31.969Z,97048.83
2019-05-02T14:53:04.366Z,97032.87
2019-05-02T14:55:36.352Z,97035.14
2019-05-02T14:58:06.116Z,97035.81
2019-05-02T15:00:39.735Z,97033.77
2019-05-02T15:03:10.280Z,97041.34
2019-05-02T15:05:39.657Z,97029.97
2019-05-02T15:08:09.072Z,97034.77
2019-05-02T15:10:50.670Z,97026.99
2019-05-02T15:13:09.639Z,97030.70
2019-05-02T15:15:42.927Z,97032.48
2019-05-02T15:18:15.926Z,97021.27
2019-05-02T15:20:42.378Z,97023.52
2019-05-02T15:23:19.387Z,97025.70
2019-05-02T15:25:47.191Z,97017.94
2019-05-02T15:28:19.361Z,97011.94
2019-05-02T15:31:04.965Z,97008.10
2019-05-02T15:33:37.522Z,97004.63
2019-05-02T15:36:07.739Z,97009.02
2019-05-02T15:38:42.004Z,97008.27
2019-05-02T15:41:12.594Z,97014.95
2019-05-02T15:43:44.470Z,97007.09
2019-05-02T15:46:15.771Z,97011.67
2019-05-02T15:48:42.303Z,97000.71
2019-05-02T15:51:12.336Z,97001.64
2019-05-02T15:53:52.505Z,96995.20
2019-05-02T15:56:20.341Z,96993.70
2019-05-02T15:58:49.690Z,97003.04
2019-05-02T16:01:45.328Z,96988.89
2019-05-02T16:04:17.201Z,96994.50
2019-05-02T16:06:45.270Z,96981.53
2019-05-02T16:09:14.870Z,96986.33
2019-05-02T16:11:47.848Z,96984.50
2019-05-02T16:14:15.718Z,96985.36
2019-05-02T16:16:45.438Z,96989.61
2019-05-02T16:19:27.180Z,96984.27
2019-05-02T16:21:52.041Z,96975.27
2019-05-02T16:24:24.763Z,96974.00
2019-05-02T16:26:56.930Z,96978.94
2019-05-02T16:29:28.714Z,96978.96
2019-05-02T16:32:35.920Z,96983.41
2019-05-02T16:35:15.399Z,96978.20
2019-05-02T16:37:39.370Z,96982.31
2019-05-02T16:40:12.049Z,96983.75
2019-05-02T16:42:41.953Z,96976.53
2019-05-02T16:45:12.013Z,96974.76
2019-05-02T16:47:42.310Z,96975.97
2019-05-02T16:50:12.376Z,96979.37
2019-05-02T16:52:43.666Z,96986.80
2019-05-02T16:55:20.571Z,96968.36
2019-05-02T16:57:44.697Z,96966.50
2019-05-02T17:00:18.830Z,96971.70
2019-05-02T17:02:48.196Z,96967.95
2019-05-02T17:05:17.711Z,96974.78
2019-05-02T17:07:56.495Z,96975.22
2019-05-02T17:10:53.713Z,96968.63
2019-05-02T17:13:18.955Z,96972.94
2019-05-02T17:15:48.588Z,96975.63
2019-05-02T17:18:18.429Z,96972.38
2019-05-02T17:20:53.572Z,96977.89
2019-05-02T17:23:19.243Z,96973.14
2019-05-02T17:25:48.657Z,96977.00
2019-05-02T17:28:18.042Z,96973.41
2019-05-02T17:30:47.958Z,96970.11
2019-05-02T17:33:17.355Z,96969.21
2019-05-02T17:35:51.538Z,96978.06
2019-05-02T17:38:19.120Z,96977.31
2019-05-02T17:40:51.752Z,96975.08
2019-05-02T17:43:20.322Z,96976.94
2019-05-02T17:45:49.804Z,96970.09
2019-05-02T17:48:19.256Z,96968.94
2019-05-02T17:51:12.396Z,96970.14
2019-05-02T17:53:49.295Z,96966.22
2019-05-02T17:56:20.856Z,96962.63
2019-05-02T17:58:47.313Z,96963.73
2019-05-02T18:01:21.765Z,96976.73
2019-05-02T18:03:52.073Z,96976.75
2019-05-02T18:06:32.399Z,96989.06
2019-05-02T18:08:55.297Z,96989.22
2019-05-02T18:11:24.050Z,96986.26
2019-05-02T18:13:53.539Z,96994.22
2019-05-02T18:16:22.985Z,97004.63
2019-05-02T18:18:52.633Z,97000.72
2019-05-02T18:21:26.939Z,96995.48
2019-05-02T18:23:57.144Z,97000.91
2019-05-02T18:26:24.616Z,97006.92
2019-05-02T18:28:57.144Z,97006.63
2019-05-02T18:31:25.281Z,97006.69
2019-05-02T18:33:54.899Z,96999.31
2019-05-02T18:36:26.948Z,97001.97
2019-05-02T18:39:00.611Z,97008.27
2019-05-02T18:41:26.887Z,97005.69
2019-05-02T18:43:56.404Z,97006.60
2019-05-02T18:46:25.833Z,97005.84
2019-05-02T18:48:55.262Z,97010.13
2019-05-02T18:51:24.664Z,97010.25
2019-05-02T18:53:58.056Z,97014.91
2019-05-02T18:56:25.536Z,97013.43
2019-05-02T18:58:55.069Z,97017.00
2019-05-02T19:01:24.877Z,97018.36
2019-05-02T19:03:56.309Z,97018.99
2019-05-02T19:06:28.008Z,97017.21
2019-05-02T19:09:02.163Z,97013.80
2019-05-02T19:11:35.176Z,97012.34
2019-05-02T19:14:02.847Z,97018.69
2019-05-02T19:16:32.206Z,97023.59
2019-05-02T19:19:01.893Z,97021.98
2019-05-02T19:21:36.063Z,97026.63
2019-05-02T19:24:02.519Z,97028.14
2019-05-02T19:26:32.641Z,97028.73
2019-05-02T19:29:17.483Z,97025.64
2019-05-02T19:31:52.502Z,97030.20
2019-05-02T19:34:26.610Z,97029.45
2019-05-02T19:36:57.815Z,97031.03
2019-05-02T19:39:26.051Z,97031.48
2019-05-02T19:41:55.515Z,97027.30
2019-05-02T19:44:28.876Z,97029.66
2019-05-02T19:46:56.229Z,97027.16
2019-05-02T19:49:25.726Z,97028.45
2019-05-02T19:51:56.654Z,97023.34
2019-05-02T19:54:26.562Z,97018.15
2019-05-02T19:56:55.968Z,97017.88
2019-05-02T19:59:26.813Z,97025.38
2019-05-02T20:01:57.007Z,97026.73
2019-05-02T20:04:27.598Z,97042.69
2019-05-02T20:06:56.982Z,97042.67
2019-05-02T20:09:26.391Z,97052.56
2019-05-02T20:11:55.772Z,97048.46
2019-05-02T20:14:25.202Z,97051.19
2019-05-02T20:16:56.579Z,97055.84
2019-05-02T20:19:27.149Z,97052.88
2019-05-02T20:22:13.103Z,97056.43
2019-05-02T20:24:58.507Z,97057.85
2019-05-02T20:27:27.946Z,97064.80
2019-05-02T20:29:56.230Z,97064.18
2019-05-02T20:32:25.637Z,97059.13
2019-05-02T20:34:55.130Z,97060.44
2019-05-02T20:37:25.062Z,97067.16
2019-05-02T20:39:54.443Z,97076.61
2019-05-02T20:42:23.843Z,97068.09
2019-05-02T20:44:53.254Z,97072.63
2019-05-02T20:47:25.815Z,97074.00
2019-05-02T20:49:55.220Z,97078.77
2019-05-02T20:52:24.657Z,97077.20
2019-05-02T20:54:54.062Z,97075.95
2019-05-02T20:57:23.436Z,97073.36
2019-05-02T20:59:52.831Z,97074.50
2019-05-02T21:02:22.538Z,97073.14
2019-05-02T21:04:52.311Z,97072.03
2019-05-02T21:07:35.120Z,97063.12
2019-05-02T21:10:10.054Z,97067.05
2019-05-02T21:12:39.485Z,97069.54
2019-05-02T21:15:09.064Z,97068.66
2019-05-02T21:17:38.452Z,97069.78
2019-05-02T21:20:07.999Z,97061.66
2019-05-02T21:22:37.430Z,97066.83
2019-05-02T21:25:07.412Z,97074.52
2019-05-02T21:27:36.773Z,97074.41
2019-05-02T21:30:08.045Z,97078.33
2019-05-02T21:32:37.472Z,97077.11
2019-05-02T21:35:07.160Z,97079.92
2019-05-02T21:37:36.666Z,97082.17
2019-05-02T21:40:06.985Z,97076.64
2019-05-02T21:42:36.384Z,97079.69
2019-05-02T21:45:06.374Z,97080.80
2019-05-02T21:47:35.755Z,97086.46
2019-05-02T21:50:18.605Z,97087.36
2019-05-02T21:53:19.265Z,97088.04
2019-05-02T21:56:02.700Z,97083.81
2019-05-02T21:58:32.361Z,97079.66
2019-05-02T22:01:09.487Z,97078.77
2019-05-02T22:03:40.186Z,97082.83
2019-05-02T22:06:12.056Z,97081.67
2019-05-02T22:08:41.775Z,97085.30
2019-05-02T22:11:12.221Z,97087.59
2019-05-02T22:13:42.352Z,97086.33
2019-05-02T22:16:12.950Z,97091.40
2019-05-02T22:18:42.817Z,97097.41
2019-05-02T22:21:12.409Z,97112.54
2019-05-02T22:23:42.546Z,97125.53
2019-05-02T22:26:12.788Z,97129.23
2019-05-02T22:28:42.314Z,97124.95
2019-05-02T22:31:12.297Z,97123.14
2019-05-02T22:33:44.608Z,97132.69
2019-05-02T22:36:13.312Z,97132.04
2019-05-02T22:38:48.959Z,97137.48
2019-05-02T22:41:18.430Z,97133.59
2019-05-02T22:43:47.815Z,97132.67
2019-05-02T22:46:36.164Z,97131.59
2019-05-02T22:49:05.708Z,97138.31
2019-05-02T22:51:35.093Z,97129.48
2019-05-02T22:54:04.586Z,97129.64
2019-05-02T22:56:34.030Z,97137.30
2019-05-02T22:59:03.610Z,97145.52
2019-05-02T23:01:33.124Z,97142.88
2019-05-02T23:04:02.691Z,97149.41
2019-05-02T23:06:32.134Z,97149.32
2019-05-02T23:09:01.983Z,97151.80
2019-05-02T23:11:32.981Z,97145.66
2019-05-02T23:14:02.611Z,97153.09
2019-05-02T23:16:34.468Z,97145.25
2019-05-02T23:19:03.330Z,97143.28
2019-05-02T23:21:32.861Z,97143.73
2019-05-02T23:24:04.418Z,97140.07
2019-05-02T23:26:56.172Z,97141.26
2019-05-02T23:29:25.688Z,97137.31
2019-05-02T23:31:55.058Z,97132.64
2019-05-02T23:34:24.556Z,97131.00
2019-05-02T23:36:53.983Z,97131.19
2019-05-02T23:39:23.357Z,97126.84
2019-05-02T23:41:52.766Z,97120.98
2019-05-02T23:44:22.876Z,97121.66
2019-05-02T23:46:52.490Z,97123.73
2019-05-02T23:49:22.119Z,97123.45
2019-05-02T23:51:53.288Z,97127.33
2019-05-02T23:54:22.694Z,97123.91
2019-05-02T23:56:52.115Z,97127.55
2019-05-02T23:59:22.364Z,97129.05
